KVPS/VPS METAR and TAF weather

Enter ICAO airport designator
Station Type Date Time Source
KVPS METAR 2019/08/22 15:56 UTC NOAA

KVPS 221556Z AUTO 17004KT 10SM -TSRA SCT048 25/25 A3007 RMK AO2 SLP189 P0020 T02540252 $


Station Type Date Time Source
KVPS Decoded METAR 2019/08/22 15:56 UTC NOAA

Station name not available
Aug 22, 2019 - 11:56 AM EDT / 2019.08.22 1556 UTC
Wind: from the S (170 degrees) at 5 MPH (4 KT):0
Visibility: 10 mile(s):0
Sky conditions: partly cloudy
Weather: light rain with thunder
Precipitation last hour: 0.20 inches
Temperature: 77.7 F (25.4 C)
Dew Point: 77.4 F (25.2 C)
Relative Humidity: 98%
Pressure (altimeter): 30.07 in. Hg (1018 hPa)
ob: KVPS 221556Z AUTO 17004KT 10SM -TSRA SCT048 25/25 A3007 RMK AO2 SLP189 P0020 T02540252
cycle: 16

Station Type Date Time Source
KVPS TAF 2019/08/22 11:50 UTC NOAA

TAF
AMD KVPS 221138Z 2211/2315 07008KT 9999 -SHRA VCTS BKN020 BKN040CB BKN080 QNH3000INS
TEMPO 2211/2216 18010G18KT 9000 -TSRA BKN018 BKN040CB BKN180
BECMG 2218/2219 17010KT 9999 NSW FEW020 FEW055 BKN200 QNH3002INS
BECMG 2303/2304 17006KT 9999 BKN020 BKN080 BKN150 QNH3000INS
BECMG 2308/2309 18006KT 9999 FEW025 SCT080 SCT150 SCT250 QNH3002INS
BECMG 2313/2314 21009KT 9000 -SHRA SCT018 BKN025 BKN100 BKN180 QNH3000INS TX31/2217Z TN25/2211Z

Example: see airport list